sensor_id;sensor_type;location;lat;lon;timestamp;pressure;altitude;pressure_sealevel;temperature;humidity
47154;BME280;32907;41.412;2.164;2023-04-19T00:02:29;100590.81;;;20.09;45.53
47154;BME280;32907;41.412;2.164;2023-04-19T00:04:57;100593.50;;;20.14;45.45
47154;BME280;32907;41.412;2.164;2023-04-19T00:07:28;100573.50;;;20.00;45.61
47154;BME280;32907;41.412;2.164;2023-04-19T00:09:56;100577.78;;;20.06;45.92
47154;BME280;32907;41.412;2.164;2023-04-19T00:12:24;100600.47;;;20.20;45.82
47154;BME280;32907;41.412;2.164;2023-04-19T00:14:52;100536.78;;;19.73;46.03
47154;BME280;32907;41.412;2.164;2023-04-19T00:17:20;100518.94;;;19.62;46.02
47154;BME280;32907;41.412;2.164;2023-04-19T00:19:49;100606.72;;;20.21;46.11
47154;BME280;32907;41.412;2.164;2023-04-19T00:22:17;100547.03;;;19.81;46.11
47154;BME280;32907;41.412;2.164;2023-04-19T00:24:45;100610.78;;;20.23;46.11
47154;BME280;32907;41.412;2.164;2023-04-19T00:27:13;100572.44;;;19.96;45.85
47154;BME280;32907;41.412;2.164;2023-04-19T00:29:41;100563.25;;;19.92;46.19
47154;BME280;32907;41.412;2.164;2023-04-19T00:32:09;100578.06;;;20.04;46.16
47154;BME280;32907;41.412;2.164;2023-04-19T00:34:37;100537.22;;;19.80;46.17
47154;BME280;32907;41.412;2.164;2023-04-19T00:37:07;100561.56;;;19.96;46.42
47154;BME280;32907;41.412;2.164;2023-04-19T00:39:35;100601.88;;;20.18;46.42
47154;BME280;32907;41.412;2.164;2023-04-19T00:42:06;100598.84;;;20.19;46.35
47154;BME280;32907;41.412;2.164;2023-04-19T00:44:34;100583.44;;;20.09;46.41
47154;BME280;32907;41.412;2.164;2023-04-19T00:47:02;100599.41;;;20.21;46.69
47154;BME280;32907;41.412;2.164;2023-04-19T00:49:30;100489.31;;;19.61;46.47
47154;BME280;32907;41.412;2.164;2023-04-19T00:51:59;100566.31;;;20.09;46.36
47154;BME280;32907;41.412;2.164;2023-04-19T00:54:30;100574.06;;;20.21;46.63
47154;BME280;32907;41.412;2.164;2023-04-19T00:56:58;100540.06;;;19.94;46.39
47154;BME280;32907;41.412;2.164;2023-04-19T00:59:25;100514.38;;;19.81;46.50
47154;BME280;32907;41.412;2.164;2023-04-19T01:01:53;100547.56;;;20.07;46.54
47154;BME280;32907;41.412;2.164;2023-04-19T01:04:37;100560.72;;;20.19;46.53
47154;BME280;32907;41.412;2.164;2023-04-19T01:07:05;100563.69;;;20.23;46.17
47154;BME280;32907;41.412;2.164;2023-04-19T01:09:34;100564.00;;;20.21;46.42
47154;BME280;32907;41.412;2.164;2023-04-19T01:12:03;100559.72;;;20.15;46.24
47154;BME280;32907;41.412;2.164;2023-04-19T01:14:31;100502.41;;;19.82;46.14
47154;BME280;32907;41.412;2.164;2023-04-19T01:16:59;100559.72;;;20.15;45.91
47154;BME280;32907;41.412;2.164;2023-04-19T01:19:27;100558.31;;;20.18;46.27
47154;BME280;32907;41.412;2.164;2023-04-19T01:21:55;100524.34;;;19.91;46.04
47154;BME280;32907;41.412;2.164;2023-04-19T01:24:25;100556.69;;;20.17;45.81
47154;BME280;32907;41.412;2.164;2023-04-19T01:26:53;100556.75;;;20.11;45.81
47154;BME280;32907;41.412;2.164;2023-04-19T01:29:20;100522.94;;;19.94;46.04
47154;BME280;32907;41.412;2.164;2023-04-19T01:31:49;100537.31;;;19.99;45.67
47154;BME280;32907;41.412;2.164;2023-04-19T01:34:20;100523.19;;;19.73;45.82
47154;BME280;32907;41.412;2.164;2023-04-19T01:36:49;100533.53;;;19.95;45.56
47154;BME280;32907;41.412;2.164;2023-04-19T01:39:17;100536.19;;;20.00;45.70
47154;BME280;32907;41.412;2.164;2023-04-19T01:41:45;100544.47;;;20.14;45.52
47154;BME280;32907;41.412;2.164;2023-04-19T01:44:13;100546.41;;;20.14;45.96
47154;BME280;32907;41.412;2.164;2023-04-19T01:46:42;100532.06;;;20.03;45.58
47154;BME280;32907;41.412;2.164;2023-04-19T01:49:09;100552.09;;;20.12;45.84
47154;BME280;32907;41.412;2.164;2023-04-19T01:51:38;100552.41;;;20.10;45.63
47154;BME280;32907;41.412;2.164;2023-04-19T01:54:08;100484.34;;;19.68;45.70
47154;BME280;32907;41.412;2.164;2023-04-19T01:56:36;100406.28;;;19.15;45.89
47154;BME280;32907;41.412;2.164;2023-04-19T01:59:04;100494.88;;;19.74;45.73
47154;BME280;32907;41.412;2.164;2023-04-19T02:01:32;100507.38;;;19.75;45.54
47154;BME280;32907;41.412;2.164;2023-04-19T02:04:01;100542.41;;;20.06;46.01
47154;BME280;32907;41.412;2.164;2023-04-19T02:06:30;100525.66;;;19.94;45.66
47154;BME280;32907;41.412;2.164;2023-04-19T02:08:59;100481.91;;;19.66;45.87
47154;BME280;32907;41.412;2.164;2023-04-19T02:11:28;100536.16;;;20.05;45.85
47154;BME280;32907;41.412;2.164;2023-04-19T02:13:56;100544.03;;;20.07;45.96
47154;BME280;32907;41.412;2.164;2023-04-19T02:16:24;100496.97;;;19.82;45.67
47154;BME280;32907;41.412;2.164;2023-04-19T02:18:51;100490.94;;;19.86;45.73
47154;BME280;32907;41.412;2.164;2023-04-19T02:21:20;100527.69;;;20.07;45.82
47154;BME280;32907;41.412;2.164;2023-04-19T02:23:48;100500.34;;;19.93;45.65
47154;BME280;32907;41.412;2.164;2023-04-19T02:26:16;100501.00;;;19.85;45.66
47154;BME280;32907;41.412;2.164;2023-04-19T02:28:43;100341.34;;;18.90;45.82
47154;BME280;32907;41.412;2.164;2023-04-19T02:31:12;100515.84;;;19.98;45.62
47154;BME280;32907;41.412;2.164;2023-04-19T02:33:40;100526.06;;;20.06;45.92
47154;BME280;32907;41.412;2.164;2023-04-19T02:36:09;100517.59;;;20.07;45.64
47154;BME280;32907;41.412;2.164;2023-04-19T02:38:37;100426.56;;;19.52;45.69
47154;BME280;32907;41.412;2.164;2023-04-19T02:41:06;100521.50;;;20.01;45.94
47154;BME280;32907;41.412;2.164;2023-04-19T02:43:37;100508.81;;;19.92;45.99
47154;BME280;32907;41.412;2.164;2023-04-19T02:46:05;100478.47;;;19.79;45.92
47154;BME280;32907;41.412;2.164;2023-04-19T02:48:34;100467.69;;;19.74;45.75
47154;BME280;32907;41.412;2.164;2023-04-19T02:51:02;100511.41;;;20.02;45.46
47154;BME280;32907;41.412;2.164;2023-04-19T02:53:31;100469.28;;;19.75;45.54
47154;BME280;32907;41.412;2.164;2023-04-19T02:55:59;100502.28;;;19.93;45.42
47154;BME280;32907;41.412;2.164;2023-04-19T02:58:28;100498.41;;;19.99;44.86
47154;BME280;32907;41.412;2.164;2023-04-19T03:01:03;100485.44;;;19.91;45.20
47154;BME280;32907;41.412;2.164;2023-04-19T03:03:31;100501.03;;;20.04;44.86
47154;BME280;32907;41.412;2.164;2023-04-19T03:05:59;100510.00;;;20.04;44.96
47154;BME280;32907;41.412;2.164;2023-04-19T03:08:27;100423.31;;;19.50;44.82
47154;BME280;32907;41.412;2.164;2023-04-19T03:10:55;100481.09;;;19.90;44.98
47154;BME280;32907;41.412;2.164;2023-04-19T03:13:23;100488.66;;;19.93;44.55
47154;BME280;32907;41.412;2.164;2023-04-19T03:15:52;100493.41;;;20.06;44.42
47154;BME280;32907;41.412;2.164;2023-04-19T03:18:23;100470.78;;;19.87;44.43
47154;BME280;32907;41.412;2.164;2023-04-19T03:20:54;100501.56;;;20.06;44.20
47154;BME280;32907;41.412;2.164;2023-04-19T03:23:22;100485.44;;;19.91;44.12
47154;BME280;32907;41.412;2.164;2023-04-19T03:25:50;100501.56;;;20.06;44.20
47154;BME280;32907;41.412;2.164;2023-04-19T03:28:33;100504.28;;;20.06;43.82
47154;BME280;32907;41.412;2.164;2023-04-19T03:31:19;100492.31;;;20.07;43.84
47154;BME280;32907;41.412;2.164;2023-04-19T03:33:50;100440.00;;;19.67;43.54
47154;BME280;32907;41.412;2.164;2023-04-19T03:36:21;100468.28;;;19.90;43.37
47154;BME280;32907;41.412;2.164;2023-04-19T03:38:49;100494.06;;;19.98;43.28
47154;BME280;32907;41.412;2.164;2023-04-19T03:43:50;100467.88;;;19.78;42.75
47154;BME280;32907;41.412;2.164;2023-04-19T03:46:18;100469.47;;;19.84;42.53
47154;BME280;32907;41.412;2.164;2023-04-19T03:48:47;100502.66;;;20.05;42.48
47154;BME280;32907;41.412;2.164;2023-04-19T03:51:14;100496.13;;;20.06;42.17
47154;BME280;32907;41.412;2.164;2023-04-19T03:53:43;100477.47;;;19.94;42.18
47154;BME280;32907;41.412;2.164;2023-04-19T03:56:11;100452.38;;;19.78;42.03
47154;BME280;32907;41.412;2.164;2023-04-19T03:58:39;100455.97;;;19.74;41.91
47154;BME280;32907;41.412;2.164;2023-04-19T04:01:20;100491.34;;;19.98;41.74
47154;BME280;32907;41.412;2.164;2023-04-19T04:03:50;100472.97;;;19.84;41.79
47154;BME280;32907;41.412;2.164;2023-04-19T04:06:18;100495.31;;;20.05;41.81
47154;BME280;32907;41.412;2.164;2023-04-19T04:08:47;100482.13;;;19.94;41.25
47154;BME280;32907;41.412;2.164;2023-04-19T04:11:15;100468.13;;;19.81;41.42
47154;BME280;32907;41.412;2.164;2023-04-19T04:13:46;100486.47;;;19.95;41.57
47154;BME280;32907;41.412;2.164;2023-04-19T04:16:18;100474.09;;;19.83;41.23
47154;BME280;32907;41.412;2.164;2023-04-19T04:18:46;100459.44;;;19.79;41.10
47154;BME280;32907;41.412;2.164;2023-04-19T04:21:15;100422.72;;;19.53;40.91
47154;BME280;32907;41.412;2.164;2023-04-19T04:23:46;100452.47;;;19.73;41.16
47154;BME280;32907;41.412;2.164;2023-04-19T04:26:39;100472.03;;;19.94;41.40
47154;BME280;32907;41.412;2.164;2023-04-19T04:29:37;100344.19;;;19.04;40.91
47154;BME280;32907;41.412;2.164;2023-04-19T04:32:07;100483.00;;;19.89;41.12
47154;BME280;32907;41.412;2.164;2023-04-19T04:34:40;100481.16;;;19.84;41.11
47154;BME280;32907;41.412;2.164;2023-04-19T04:37:14;100511.41;;;20.02;40.69
47154;BME280;32907;41.412;2.164;2023-04-19T04:39:43;100478.13;;;19.86;41.02
47154;BME280;32907;41.412;2.164;2023-04-19T04:42:11;100499.75;;;19.96;40.41
47154;BME280;32907;41.412;2.164;2023-04-19T04:44:40;100492.03;;;19.84;40.71
47154;BME280;32907;41.412;2.164;2023-04-19T04:47:11;100445.56;;;19.57;41.00
47154;BME280;32907;41.412;2.164;2023-04-19T04:49:46;100510.94;;;19.95;41.01
47154;BME280;32907;41.412;2.164;2023-04-19T04:52:14;100510.44;;;19.93;40.31
47154;BME280;32907;41.412;2.164;2023-04-19T04:54:56;100482.31;;;19.78;40.58
47154;BME280;32907;41.412;2.164;2023-04-19T04:57:30;100496.97;;;19.82;40.86
47154;BME280;32907;41.412;2.164;2023-04-19T04:59:59;100486.06;;;19.82;40.78
47154;BME280;32907;41.412;2.164;2023-04-19T05:02:34;100450.94;;;19.62;40.92
47154;BME280;32907;41.412;2.164;2023-04-19T05:05:03;100515.03;;;19.97;40.77
47154;BME280;32907;41.412;2.164;2023-04-19T05:07:32;100483.44;;;19.72;40.79
47154;BME280;32907;41.412;2.164;2023-04-19T05:10:01;100471.75;;;19.72;41.16
47154;BME280;32907;41.412;2.164;2023-04-19T05:12:40;100463.97;;;19.65;41.50
47154;BME280;32907;41.412;2.164;2023-04-19T05:15:09;100513.38;;;19.96;41.77
47154;BME280;32907;41.412;2.164;2023-04-19T05:17:43;100478.56;;;19.74;41.57
47154;BME280;32907;41.412;2.164;2023-04-19T05:20:12;100511.19;;;19.98;41.86
47154;BME280;32907;41.412;2.164;2023-04-19T05:22:41;100454.25;;;19.59;42.10
47154;BME280;32907;41.412;2.164;2023-04-19T05:25:11;100390.44;;;19.22;41.96
47154;BME280;32907;41.412;2.164;2023-04-19T05:27:39;100518.25;;;19.99;41.89
47154;BME280;32907;41.412;2.164;2023-04-19T05:30:08;100519.34;;;19.98;40.91
47154;BME280;32907;41.412;2.164;2023-04-19T05:32:40;100439.41;;;19.46;40.38
47154;BME280;32907;41.412;2.164;2023-04-19T05:35:10;100512.41;;;19.87;40.64
47154;BME280;32907;41.412;2.164;2023-04-19T05:37:39;100508.81;;;19.92;40.95
47154;BME280;32907;41.412;2.164;2023-04-19T05:40:12;100492.31;;;19.83;41.24
47154;BME280;32907;41.412;2.164;2023-04-19T05:42:41;100506.41;;;19.90;41.83
47154;BME280;32907;41.412;2.164;2023-04-19T05:45:10;100475.47;;;19.81;41.93
47154;BME280;32907;41.412;2.164;2023-04-19T05:47:43;100403.06;;;19.37;41.79
47154;BME280;32907;41.412;2.164;2023-04-19T05:50:35;100528.06;;;20.19;42.11
47154;BME280;32907;41.412;2.164;2023-04-19T05:53:23;100524.81;;;20.17;41.42
47154;BME280;32907;41.412;2.164;2023-04-19T05:55:55;100535.38;;;20.24;40.69
47154;BME280;32907;41.412;2.164;2023-04-19T05:58:24;100530.28;;;20.17;41.07
47154;BME280;32907;41.412;2.164;2023-04-19T06:00:53;100519.44;;;20.12;41.32
47154;BME280;32907;41.412;2.164;2023-04-19T06:03:23;100463.72;;;19.86;41.44
47154;BME280;32907;41.412;2.164;2023-04-19T06:05:59;100542.63;;;20.28;41.15
47154;BME280;32907;41.412;2.164;2023-04-19T06:08:27;100531.75;;;20.28;40.70
47154;BME280;32907;41.412;2.164;2023-04-19T06:10:55;100479.44;;;19.89;40.66
47154;BME280;32907;41.412;2.164;2023-04-19T06:13:31;100542.06;;;20.31;40.80
47154;BME280;32907;41.412;2.164;2023-04-19T06:16:00;100528.16;;;20.33;40.62
47154;BME280;32907;41.412;2.164;2023-04-19T06:18:28;100486.63;;;20.03;40.62
47154;BME280;32907;41.412;2.164;2023-04-19T06:20:57;100522.25;;;20.26;40.40
47154;BME280;32907;41.412;2.164;2023-04-19T06:23:24;100475.28;;;19.96;39.89
47154;BME280;32907;41.412;2.164;2023-04-19T06:25:53;100486.84;;;20.07;39.09
47154;BME280;32907;41.412;2.164;2023-04-19T06:28:21;100507.69;;;20.17;39.82
47154;BME280;32907;41.412;2.164;2023-04-19T06:30:49;100534.94;;;20.35;39.73
47154;BME280;32907;41.412;2.164;2023-04-19T06:33:17;100469.63;;;19.93;39.75
47154;BME280;32907;41.412;2.164;2023-04-19T06:35:45;100535.22;;;20.34;39.44
47154;BME280;32907;41.412;2.164;2023-04-19T06:38:12;100466.59;;;19.94;39.29
47154;BME280;32907;41.412;2.164;2023-04-19T06:40:40;100504.44;;;20.15;39.13
47154;BME280;32907;41.412;2.164;2023-04-19T06:43:08;100529.19;;;20.37;39.08
47154;BME280;32907;41.412;2.164;2023-04-19T06:45:36;100533.59;;;20.33;38.80
47154;BME280;32907;41.412;2.164;2023-04-19T06:48:05;100491.19;;;20.08;39.36
47154;BME280;32907;41.412;2.164;2023-04-19T06:50:33;100518.06;;;20.33;38.78
47154;BME280;32907;41.412;2.164;2023-04-19T06:53:01;100528.63;;;20.40;39.14
47154;BME280;32907;41.412;2.164;2023-04-19T06:55:31;100496.50;;;20.18;39.24
47154;BME280;32907;41.412;2.164;2023-04-19T06:58:02;100516.97;;;20.34;39.31
47154;BME280;32907;41.412;2.164;2023-04-19T07:00:30;100518.94;;;20.29;39.55
47154;BME280;32907;41.412;2.164;2023-04-19T07:02:58;100490.47;;;20.21;39.65
47154;BME280;32907;41.412;2.164;2023-04-19T07:05:28;100507.19;;;20.33;39.32
47154;BME280;32907;41.412;2.164;2023-04-19T07:07:57;100505.06;;;20.30;39.33
47154;BME280;32907;41.412;2.164;2023-04-19T07:10:25;100500.84;;;20.19;39.48
47154;BME280;32907;41.412;2.164;2023-04-19T07:12:53;100485.84;;;20.22;39.72
47154;BME280;32907;41.412;2.164;2023-04-19T07:15:22;100524.22;;;20.44;39.86
47154;BME280;32907;41.412;2.164;2023-04-19T07:17:50;100542.13;;;20.50;39.94
47154;BME280;32907;41.412;2.164;2023-04-19T07:20:20;100520.75;;;20.38;40.14
47154;BME280;32907;41.412;2.164;2023-04-19T07:22:48;100538.28;;;20.51;40.32
47154;BME280;32907;41.412;2.164;2023-04-19T07:25:15;100522.84;;;20.47;40.55
47154;BME280;32907;41.412;2.164;2023-04-19T07:27:43;100527.94;;;20.53;41.79
47154;BME280;32907;41.412;2.164;2023-04-19T07:30:12;100505.41;;;20.43;40.86
47154;BME280;32907;41.412;2.164;2023-04-19T07:32:39;100538.38;;;20.65;40.75
47154;BME280;32907;41.412;2.164;2023-04-19T07:35:09;100541.59;;;20.67;40.10
47154;BME280;32907;41.412;2.164;2023-04-19T07:37:38;100507.59;;;20.46;40.69
47154;BME280;32907;41.412;2.164;2023-04-19T07:40:07;100535.69;;;20.60;40.91
47154;BME280;32907;41.412;2.164;2023-04-19T07:42:36;100557.59;;;20.74;40.31
47154;BME280;32907;41.412;2.164;2023-04-19T07:45:08;100542.56;;;20.57;39.64
47154;BME280;32907;41.412;2.164;2023-04-19T07:47:36;100560.59;;;20.72;39.42
47154;BME280;32907;41.412;2.164;2023-04-19T07:50:05;100559.00;;;20.71;39.39
47154;BME280;32907;41.412;2.164;2023-04-19T07:52:34;100566.34;;;20.71;39.45
47154;BME280;32907;41.412;2.164;2023-04-19T07:55:02;100517.97;;;20.44;39.36
47154;BME280;32907;41.412;2.164;2023-04-19T07:57:30;100550.38;;;20.64;39.06
47154;BME280;32907;41.412;2.164;2023-04-19T07:59:58;100557.66;;;20.68;39.60
47154;BME280;32907;41.412;2.164;2023-04-19T08:02:26;100510.41;;;20.35;40.91
47154;BME280;32907;41.412;2.164;2023-04-19T08:04:55;100559.50;;;20.73;40.43
47154;BME280;32907;41.412;2.164;2023-04-19T08:07:27;100561.13;;;20.74;39.93
47154;BME280;32907;41.412;2.164;2023-04-19T08:09:56;100560.31;;;20.74;39.72
47154;BME280;32907;41.412;2.164;2023-04-19T08:12:25;100558.09;;;20.76;39.78
47154;BME280;32907;41.412;2.164;2023-04-19T08:15:07;100561.94;;;20.75;41.13
47154;BME280;32907;41.412;2.164;2023-04-19T08:17:55;100594.25;;;20.81;41.29
47154;BME280;32907;41.412;2.164;2023-04-19T08:20:23;100574.00;;;20.87;41.44
47154;BME280;32907;41.412;2.164;2023-04-19T08:22:53;100556.09;;;20.81;40.50
47154;BME280;32907;41.412;2.164;2023-04-19T08:25:21;100571.19;;;20.92;39.90
47154;BME280;32907;41.412;2.164;2023-04-19T08:27:54;100531.50;;;20.67;39.40
47154;BME280;32907;41.412;2.164;2023-04-19T08:30:22;100575.56;;;20.93;40.00
47154;BME280;32907;41.412;2.164;2023-04-19T08:32:50;100576.38;;;20.94;39.34
47154;BME280;32907;41.412;2.164;2023-04-19T08:35:20;100571.72;;;20.94;39.56
47154;BME280;32907;41.412;2.164;2023-04-19T08:37:48;100553.69;;;20.80;40.02
47154;BME280;32907;41.412;2.164;2023-04-19T08:40:16;100541.59;;;20.67;39.07
47154;BME280;32907;41.412;2.164;2023-04-19T08:42:44;100435.72;;;20.04;39.78
47154;BME280;32907;41.412;2.164;2023-04-19T08:45:15;100532.41;;;20.63;38.85
47154;BME280;32907;41.412;2.164;2023-04-19T08:47:56;100556.09;;;20.81;38.09
47154;BME280;32907;41.412;2.164;2023-04-19T08:50:29;100566.94;;;20.86;38.48
47154;BME280;32907;41.412;2.164;2023-04-19T08:53:08;100546.19;;;20.72;36.77
47154;BME280;32907;41.412;2.164;2023-04-19T08:55:41;100583.75;;;20.93;37.09
47154;BME280;32907;41.412;2.164;2023-04-19T08:58:30;100561.56;;;20.81;36.75
47154;BME280;32907;41.412;2.164;2023-04-19T09:01:19;100532.41;;;20.63;35.85
47154;BME280;32907;41.412;2.164;2023-04-19T09:03:51;100561.06;;;20.79;35.62
47154;BME280;32907;41.412;2.164;2023-04-19T09:06:37;100566.41;;;20.84;34.40
47154;BME280;32907;41.412;2.164;2023-04-19T09:09:17;100544.31;;;20.67;33.70
47154;BME280;32907;41.412;2.164;2023-04-19T09:11:48;100589.19;;;20.93;34.34
47154;BME280;32907;41.412;2.164;2023-04-19T09:14:19;100548.59;;;20.73;34.28
47154;BME280;32907;41.412;2.164;2023-04-19T09:16:47;100450.50;;;19.98;34.64
47154;BME280;32907;41.412;2.164;2023-04-19T09:19:15;100572.28;;;20.91;35.00
47154;BME280;32907;41.412;2.164;2023-04-19T09:21:51;100568.56;;;20.87;34.19
47154;BME280;32907;41.412;2.164;2023-04-19T09:24:40;100577.75;;;20.91;33.83
47154;BME280;32907;41.412;2.164;2023-04-19T09:27:14;100576.63;;;20.92;33.70
47154;BME280;32907;41.412;2.164;2023-04-19T09:29:52;100542.09;;;20.69;34.15
47154;BME280;32907;41.412;2.164;2023-04-19T09:32:23;100553.97;;;20.78;34.15
47154;BME280;32907;41.412;2.164;2023-04-19T09:34:57;100552.88;;;20.79;33.28
47154;BME280;32907;41.412;2.164;2023-04-19T09:37:25;100548.00;;;20.76;33.78
47154;BME280;32907;41.412;2.164;2023-04-19T09:39:56;100571.50;;;20.91;34.31
47154;BME280;32907;41.412;2.164;2023-04-19T09:42:43;100571.50;;;20.91;33.16
47154;BME280;32907;41.412;2.164;2023-04-19T09:45:42;100554.78;;;20.79;33.56
47154;BME280;32907;41.412;2.164;2023-04-19T09:48:11;100566.84;;;20.91;34.17
47154;BME280;32907;41.412;2.164;2023-04-19T09:51:00;100518.69;;;20.68;33.31
47154;BME280;32907;41.412;2.164;2023-04-19T09:53:37;100545.41;;;20.85;33.57
47154;BME280;32907;41.412;2.164;2023-04-19T09:56:09;100555.38;;;20.94;33.95
47154;BME280;32907;41.412;2.164;2023-04-19T09:58:39;100557.28;;;20.94;33.21
47154;BME280;32907;41.412;2.164;2023-04-19T10:01:19;100532.91;;;20.84;32.39
47154;BME280;32907;41.412;2.164;2023-04-19T10:03:49;100529.97;;;20.80;32.75
47154;BME280;32907;41.412;2.164;2023-04-19T10:06:19;100535.56;;;20.89;31.91
47154;BME280;32907;41.412;2.164;2023-04-19T10:08:52;100512.06;;;20.74;32.52
47154;BME280;32907;41.412;2.164;2023-04-19T10:11:21;100535.56;;;20.89;32.98
47154;BME280;32907;41.412;2.164;2023-04-19T10:13:55;100509.66;;;20.73;33.52
47154;BME280;32907;41.412;2.164;2023-04-19T10:16:24;100505.44;;;20.80;33.12
47154;BME280;32907;41.412;2.164;2023-04-19T10:18:53;100530.72;;;21.00;32.32
47154;BME280;32907;41.412;2.164;2023-04-19T10:21:26;100470.25;;;20.65;32.46
47154;BME280;32907;41.412;2.164;2023-04-19T10:23:55;100518.22;;;20.99;32.54
47154;BME280;32907;41.412;2.164;2023-04-19T10:26:24;100547.22;;;21.08;32.27
47154;BME280;32907;41.412;2.164;2023-04-19T10:28:55;100512.13;;;20.88;32.66
47154;BME280;32907;41.412;2.164;2023-04-19T10:31:29;100518.22;;;20.99;33.12
47154;BME280;32907;41.412;2.164;2023-04-19T10:33:57;100510.72;;;20.90;32.61
47154;BME280;32907;41.412;2.164;2023-04-19T10:36:26;100542.31;;;21.10;32.78
47154;BME280;32907;41.412;2.164;2023-04-19T10:38:54;100482.59;;;20.76;31.94
47154;BME280;32907;41.412;2.164;2023-04-19T10:41:23;100533.81;;;21.12;32.47
47154;BME280;32907;41.412;2.164;2023-04-19T10:44:11;100529.19;;;21.12;32.83
47154;BME280;32907;41.412;2.164;2023-04-19T10:46:39;100527.75;;;21.15;33.04
47154;BME280;32907;41.412;2.164;2023-04-19T10:49:07;100493.19;;;20.97;32.68
47154;BME280;32907;41.412;2.164;2023-04-19T10:51:37;100526.06;;;21.19;32.54
47154;BME280;32907;41.412;2.164;2023-04-19T10:57:03;100503.81;;;21.12;32.09
47154;BME280;32907;41.412;2.164;2023-04-19T10:59:34;100525.94;;;21.10;31.29
47154;BME280;32907;41.412;2.164;2023-04-19T11:02:27;100526.56;;;21.21;30.60
47154;BME280;32907;41.412;2.164;2023-04-19T11:05:00;100492.00;;;21.03;31.72
47154;BME280;32907;41.412;2.164;2023-04-19T11:07:35;100440.78;;;20.67;31.51
47154;BME280;32907;41.412;2.164;2023-04-19T11:10:03;100344.94;;;20.14;31.29
47154;BME280;32907;41.412;2.164;2023-04-19T11:12:32;100514.25;;;21.23;31.58
47154;BME280;32907;41.412;2.164;2023-04-19T11:15:00;100493.44;;;21.14;31.41
47154;BME280;32907;41.412;2.164;2023-04-19T11:17:31;100499.50;;;21.24;31.39
47154;BME280;32907;41.412;2.164;2023-04-19T11:20:04;100505.47;;;21.27;31.28
47154;BME280;32907;41.412;2.164;2023-04-19T11:22:37;100497.53;;;21.30;31.89
47154;BME280;32907;41.412;2.164;2023-04-19T11:25:08;100496.09;;;21.33;32.06
47154;BME280;32907;41.412;2.164;2023-04-19T11:27:42;100394.69;;;20.71;31.92
47154;BME280;32907;41.412;2.164;2023-04-19T11:33:01;100439.78;;;20.95;32.48
47154;BME280;32907;41.412;2.164;2023-04-19T11:35:30;100448.38;;;21.03;32.76
47154;BME280;32907;41.412;2.164;2023-04-19T11:37:58;100428.56;;;20.97;33.12
47154;BME280;32907;41.412;2.164;2023-04-19T11:40:26;100454.44;;;21.13;33.06
47154;BME280;32907;41.412;2.164;2023-04-19T11:42:58;100464.84;;;21.25;33.16
47154;BME280;32907;41.412;2.164;2023-04-19T11:45:29;100480.84;;;21.32;33.40
47154;BME280;32907;41.412;2.164;2023-04-19T11:48:04;100467.22;;;21.32;34.01
47154;BME280;32907;41.412;2.164;2023-04-19T11:50:40;100459.97;;;21.27;34.49
47154;BME280;32907;41.412;2.164;2023-04-19T11:53:24;100473.47;;;21.32;34.71
47154;BME280;32907;41.412;2.164;2023-04-19T11:56:06;100463.19;;;21.29;35.53
47154;BME280;32907;41.412;2.164;2023-04-19T11:58:41;100408.75;;;20.91;35.58
47154;BME280;32907;41.412;2.164;2023-04-19T12:01:19;100408.16;;;20.94;35.47
47154;BME280;32907;41.412;2.164;2023-04-19T12:03:49;100466.31;;;21.36;34.91
47154;BME280;32907;41.412;2.164;2023-04-19T12:06:37;100470.66;;;21.37;34.74
47154;BME280;32907;41.412;2.164;2023-04-19T12:09:07;100470.47;;;21.34;34.90
47154;BME280;32907;41.412;2.164;2023-04-19T12:11:45;100455.59;;;21.26;34.28
47154;BME280;32907;41.412;2.164;2023-04-19T12:14:17;100420.50;;;21.06;34.61
47154;BME280;32907;41.412;2.164;2023-04-19T12:17:09;100450.78;;;21.37;33.98
47154;BME280;32907;41.412;2.164;2023-04-19T12:19:43;100448.03;;;21.37;34.41
47154;BME280;32907;41.412;2.164;2023-04-19T12:22:14;100452.69;;;21.36;34.24
47154;BME280;32907;41.412;2.164;2023-04-19T12:24:42;100446.13;;;21.37;34.42
47154;BME280;32907;41.412;2.164;2023-04-19T12:27:11;100437.63;;;21.39;34.74
47154;BME280;32907;41.412;2.164;2023-04-19T12:29:39;100323.75;;;20.62;34.71
47154;BME280;32907;41.412;2.164;2023-04-19T12:32:09;100412.75;;;21.27;35.01
47154;BME280;32907;41.412;2.164;2023-04-19T12:34:37;100417.31;;;21.31;35.16
47154;BME280;32907;41.412;2.164;2023-04-19T12:37:05;100414.16;;;21.24;34.99
47154;BME280;32907;41.412;2.164;2023-04-19T12:39:33;100434.81;;;21.44;34.28
47154;BME280;32907;41.412;2.164;2023-04-19T12:42:01;100362.25;;;21.02;34.72
47154;BME280;32907;41.412;2.164;2023-04-19T12:44:29;100436.13;;;21.46;34.44
47154;BME280;32907;41.412;2.164;2023-04-19T12:46:57;100436.63;;;21.48;34.56
47154;BME280;32907;41.412;2.164;2023-04-19T12:49:25;100402.78;;;21.36;34.57
47154;BME280;32907;41.412;2.164;2023-04-19T12:51:53;100437.16;;;21.50;33.89
47154;BME280;32907;41.412;2.164;2023-04-19T12:54:24;100424.09;;;21.47;34.07
47154;BME280;32907;41.412;2.164;2023-04-19T12:56:52;100411.06;;;21.44;34.21
47154;BME280;32907;41.412;2.164;2023-04-19T12:59:20;100393.28;;;21.33;33.73
47154;BME280;32907;41.412;2.164;2023-04-19T13:01:49;100365.59;;;21.12;33.66
47154;BME280;32907;41.412;2.164;2023-04-19T13:04:17;100400.66;;;21.33;33.59
47154;BME280;32907;41.412;2.164;2023-04-19T13:06:46;100366.00;;;21.19;32.86
47154;BME280;32907;41.412;2.164;2023-04-19T13:09:17;100379.13;;;21.31;33.34
47154;BME280;32907;41.412;2.164;2023-04-19T13:11:44;100372.69;;;21.27;33.01
47154;BME280;32907;41.412;2.164;2023-04-19T13:14:12;100377.75;;;21.34;32.73
47154;BME280;32907;41.412;2.164;2023-04-19T13:16:41;100348.41;;;21.12;33.06
47154;BME280;32907;41.412;2.164;2023-04-19T13:19:09;100367.41;;;21.31;33.11